Time,TemperatureF,DewpointF,PressureIn,WindDirection,WindDirectionDegrees,WindSpeedMPH,WindSpeedGustMPH,Humidity,HourlyPrecipIn,Conditions,Clouds,dailyrainin,SoftwareType,DateUTC
2013-04-18 00:03:00,72.2,71.3,29.98,ESE,122,6.0,9.0,97,0.00,,,0.00,Wunderground v.1.15,2013-04-18 05:03:00,
2013-04-18 00:09:00,72.3,71.4,29.98,SE,136,7.0,10.0,97,0.00,,,0.00,Wunderground v.1.15,2013-04-18 05:09:00,
2013-04-18 00:15:00,72.3,71.7,29.97,SE,125,10.0,10.0,98,0.00,,,0.00,Wunderground v.1.15,2013-04-18 05:15:00,
2013-04-18 00:20:00,72.3,71.4,29.97,ESE,115,5.0,7.0,97,0.00,,,0.00,Wunderground v.1.15,2013-04-18 05:20:00,
2013-04-18 00:26:00,72.3,71.7,29.97,SE,136,5.0,8.0,98,0.00,,,0.00,Wunderground v.1.15,2013-04-18 05:26:00,
2013-04-18 00:32:00,72.3,71.7,29.97,ESE,110,7.0,8.0,98,0.00,,,0.00,Wunderground v.1.15,2013-04-18 05:32:00,
2013-04-18 00:37:00,72.3,71.4,29.97,ESE,114,10.0,10.0,97,0.00,,,0.00,Wunderground v.1.15,2013-04-18 05:37:00,
2013-04-18 00:42:00,72.3,71.7,29.97,ESE,122,7.0,7.0,98,0.00,,,0.00,Wunderground v.1.15,2013-04-18 05:42:00,
2013-04-18 00:48:00,72.3,71.7,29.97,East,88,9.0,9.0,98,0.00,,,0.00,Wunderground v.1.15,2013-04-18 05:48:00,
2013-04-18 00:54:00,72.2,71.3,29.96,ESE,118,10.0,10.0,97,0.00,,,0.00,Wunderground v.1.15,2013-04-18 05:54:00,
2013-04-18 01:00:00,72.2,71.3,29.96,ESE,110,9.0,9.0,97,0.00,,,0.00,Wunderground v.1.15,2013-04-18 06:00:00,
2013-04-18 01:05:00,72.2,71.3,29.96,SE,136,5.0,9.0,97,0.00,,,0.00,Wunderground v.1.15,2013-04-18 06:05:00,
2013-04-18 01:10:00,72.2,71.3,29.96,ESE,104,5.0,6.0,97,0.00,,,0.00,Wunderground v.1.15,2013-04-18 06:10:00,
2013-04-18 01:16:00,72.1,71.2,29.96,ESE,113,7.0,7.0,97,0.00,,,0.00,Wunderground v.1.15,2013-04-18 06:16:00,
2013-04-18 01:22:00,72.2,71.3,29.95,ESE,108,3.0,5.0,97,0.00,,,0.00,Wunderground v.1.15,2013-04-18 06:22:00,
2013-04-18 01:27:00,72.1,71.2,29.95,SE,132,3.0,7.0,97,0.00,,,0.00,Wunderground v.1.15,2013-04-18 06:27:00,
2013-04-18 01:33:00,72.1,71.2,29.95,SE,128,4.0,7.0,97,0.00,,,0.00,Wunderground v.1.15,2013-04-18 06:33:00,
2013-04-18 01:39:00,72.0,71.1,29.95,ESE,122,6.0,7.0,97,0.00,,,0.00,Wunderground v.1.15,2013-04-18 06:39:00,
2013-04-18 01:45:00,72.1,71.2,29.94,SE,138,4.0,7.0,97,0.00,,,0.00,Wunderground v.1.15,2013-04-18 06:45:00,
2013-04-18 01:50:00,72.1,71.2,29.94,East,89,3.0,5.0,97,0.00,,,0.00,Wunderground v.1.15,2013-04-18 06:50:00,
2013-04-18 01:56:00,72.0,71.1,29.94,SE,125,4.0,5.0,97,0.00,,,0.00,Wunderground v.1.15,2013-04-18 06:56:00,
2013-04-18 02:01:00,72.0,70.8,29.93,SE,142,6.0,9.0,96,0.00,,,0.00,Wunderground v.1.15,2013-04-18 07:01:00,
2013-04-18 02:06:00,72.1,70.9,29.93,SE,141,7.0,12.0,96,0.00,,,0.00,Wunderground v.1.15,2013-04-18 07:06:00,
2013-04-18 02:11:00,72.1,70.9,29.93,SE,132,3.0,10.0,96,0.00,,,0.00,Wunderground v.1.15,2013-04-18 07:11:00,
2013-04-18 02:17:00,72.1,70.6,29.93,SSE,150,4.0,12.0,95,0.00,,,0.00,Wunderground v.1.15,2013-04-18 07:17:00,
2013-04-18 02:22:00,72.2,70.7,29.93,SE,135,4.0,6.0,95,0.00,,,0.00,Wunderground v.1.15,2013-04-18 07:22:00,
2013-04-18 02:27:00,72.2,71.0,29.92,SSE,155,2.0,9.0,96,0.00,,,0.00,Wunderground v.1.15,2013-04-18 07:27:00,
2013-04-18 02:32:00,72.2,71.0,29.92,ESE,113,5.0,7.0,96,0.00,,,0.00,Wunderground v.1.15,2013-04-18 07:32:00,
2013-04-18 02:37:00,72.2,71.0,29.92,ESE,120,4.0,8.0,96,0.00,,,0.00,Wunderground v.1.15,2013-04-18 07:37:00,
2013-04-18 02:41:00,72.1,70.9,29.92,East,100,6.0,8.0,96,0.00,,,0.00,Wunderground v.1.15,2013-04-18 07:41:00,
2013-04-18 02:47:00,72.1,70.9,29.91,East,89,13.0,13.0,96,0.00,,,0.00,Wunderground v.1.15,2013-04-18 07:47:00,
2013-04-18 02:52:00,72.2,71.0,29.91,ESE,118,3.0,7.0,96,0.00,,,0.00,Wunderground v.1.15,2013-04-18 07:52:00,
2013-04-18 02:57:00,72.2,71.0,29.91,ESE,122,9.0,10.0,96,0.00,,,0.00,Wunderground v.1.15,2013-04-18 07:57:00,
2013-04-18 03:02:00,72.2,71.0,29.91,ESE,110,6.0,9.0,96,0.00,,,0.00,Wunderground v.1.15,2013-04-18 08:02:00,
2013-04-18 03:07:00,72.2,71.0,29.91,SE,125,4.0,10.0,96,0.00,,,0.00,Wunderground v.1.15,2013-04-18 08:07:00,
2013-04-18 03:12:00,72.1,70.9,29.90,SE,128,10.0,14.0,96,0.00,,,0.00,Wunderground v.1.15,2013-04-18 08:12:00,
2013-04-18 03:17:00,72.1,70.9,29.90,SE,138,7.0,14.0,96,0.00,,,0.00,Wunderground v.1.15,2013-04-18 08:17:00,
2013-04-18 03:22:00,72.0,70.8,29.90,ESE,120,5.0,10.0,96,0.00,,,0.00,Wunderground v.1.15,2013-04-18 08:22:00,
2013-04-18 03:27:00,72.0,70.8,29.90,ESE,110,5.0,11.0,96,0.00,,,0.00,Wunderground v.1.15,2013-04-18 08:27:00,
2013-04-18 03:32:00,72.0,71.1,29.90,SE,142,5.0,10.0,97,0.00,,,0.00,Wunderground v.1.15,2013-04-18 08:32:00,
2013-04-18 03:37:00,72.0,70.8,29.89,ESE,105,9.0,13.0,96,0.00,,,0.00,Wunderground v.1.15,2013-04-18 08:37:00,
2013-04-18 03:42:00,72.0,70.8,29.90,ESE,104,8.0,12.0,96,0.00,,,0.00,Wunderground v.1.15,2013-04-18 08:42:00,
2013-04-18 03:47:00,71.9,70.7,29.89,ESE,105,12.0,13.0,96,0.00,,,0.00,Wunderground v.1.15,2013-04-18 08:47:00,
2013-04-18 03:52:00,71.9,70.7,29.89,ESE,115,8.0,15.0,96,0.00,,,0.00,Wunderground v.1.15,2013-04-18 08:52:00,
2013-04-18 03:57:00,71.9,70.7,29.89,SE,131,7.0,15.0,96,0.00,,,0.00,Wunderground v.1.15,2013-04-18 08:57:00,
2013-04-18 04:02:00,72.0,70.8,29.89,ESE,117,8.0,13.0,96,0.00,,,0.00,Wunderground v.1.15,2013-04-18 09:02:00,
2013-04-18 04:07:00,71.9,70.7,29.89,ESE,110,7.0,13.0,96,0.00,,,0.00,Wunderground v.1.15,2013-04-18 09:07:00,
2013-04-18 04:12:00,71.9,70.7,29.89,ESE,120,6.0,11.0,96,0.00,,,0.00,Wunderground v.1.15,2013-04-18 09:12:00,
2013-04-18 04:17:00,71.9,70.7,29.88,ESE,108,7.0,14.0,96,0.00,,,0.00,Wunderground v.1.15,2013-04-18 09:17:00,
2013-04-18 04:22:00,71.8,70.6,29.88,SE,127,5.0,13.0,96,0.00,,,0.00,Wunderground v.1.15,2013-04-18 09:22:00,
2013-04-18 04:27:00,71.8,70.6,29.88,ESE,113,6.0,15.0,96,0.00,,,0.00,Wunderground v.1.15,2013-04-18 09:27:00,
2013-04-18 04:32:00,71.8,70.6,29.88,ESE,108,7.0,13.0,96,0.00,,,0.00,Wunderground v.1.15,2013-04-18 09:32:00,
2013-04-18 04:37:00,71.7,70.5,29.88,ESE,122,9.0,15.0,96,0.00,,,0.00,Wunderground v.1.15,2013-04-18 09:37:00,
2013-04-18 04:42:00,71.7,70.5,29.88,ESE,113,0.0,9.0,96,0.00,,,0.00,Wunderground v.1.15,2013-04-18 09:42:00,
2013-04-18 04:47:00,71.7,70.5,29.88,SE,125,10.0,14.0,96,0.00,,,0.00,Wunderground v.1.15,2013-04-18 09:47:00,
2013-04-18 04:52:00,71.6,70.4,29.88,SE,134,4.0,12.0,96,0.00,,,0.00,Wunderground v.1.15,2013-04-18 09:52:00,
2013-04-18 04:57:00,71.6,70.4,29.88,ESE,118,8.0,13.0,96,0.00,,,0.00,Wunderground v.1.15,2013-04-18 09:57:00,
2013-04-18 05:02:00,71.6,70.1,29.88,East,99,5.0,11.0,95,0.00,,,0.00,Wunderground v.1.15,2013-04-18 10:02:00,
2013-04-18 05:07:00,71.6,70.1,29.89,ESE,110,8.0,12.0,95,0.00,,,0.00,Wunderground v.1.15,2013-04-18 10:07:00,
2013-04-18 05:12:00,71.6,70.1,29.89,ESE,114,7.0,11.0,95,0.00,,,0.00,Wunderground v.1.15,2013-04-18 10:12:00,
2013-04-18 05:17:00,71.6,70.1,29.89,ESE,108,6.0,11.0,95,0.00,,,0.00,Wunderground v.1.15,2013-04-18 10:17:00,
2013-04-18 05:22:00,71.7,70.2,29.89,SE,146,7.0,11.0,95,0.00,,,0.00,Wunderground v.1.15,2013-04-18 10:22:00,
2013-04-18 05:27:00,71.7,70.5,29.89,SE,132,4.0,11.0,96,0.00,,,0.00,Wunderground v.1.15,2013-04-18 10:27:00,
2013-04-18 05:32:00,71.7,70.2,29.89,ESE,120,8.0,8.0,95,0.00,,,0.00,Wunderground v.1.15,2013-04-18 10:32:00,
2013-04-18 05:37:00,71.8,70.3,29.89,SE,129,5.0,9.0,95,0.00,,,0.00,Wunderground v.1.15,2013-04-18 10:37:00,
2013-04-18 05:42:00,71.7,70.2,29.89,SE,134,4.0,10.0,95,0.00,,,0.00,Wunderground v.1.15,2013-04-18 10:42:00,
2013-04-18 05:47:00,71.7,70.2,29.89,SE,134,6.0,10.0,95,0.00,,,0.00,Wunderground v.1.15,2013-04-18 10:47:00,
2013-04-18 05:52:00,71.8,70.3,29.88,SE,136,6.0,10.0,95,0.00,,,0.00,Wunderground v.1.15,2013-04-18 10:52:00,
2013-04-18 05:57:00,71.8,70.3,29.89,SE,132,3.0,10.0,95,0.00,,,0.00,Wunderground v.1.15,2013-04-18 10:57:00,
2013-04-18 06:02:00,71.8,70.3,29.89,ESE,113,11.0,11.0,95,0.00,,,0.00,Wunderground v.1.15,2013-04-18 11:02:00,
2013-04-18 06:07:00,71.8,70.0,29.89,SSE,150,8.0,14.0,94,0.00,,,0.00,Wunderground v.1.15,2013-04-18 11:07:00,
2013-04-18 06:12:00,71.8,70.0,29.89,SE,130,6.0,9.0,94,0.00,,,0.00,Wunderground v.1.15,2013-04-18 11:12:00,
2013-04-18 06:17:00,71.8,70.0,29.89,SE,132,5.0,16.0,94,0.00,,,0.00,Wunderground v.1.15,2013-04-18 11:17:00,
2013-04-18 06:22:00,71.9,70.1,29.88,SE,134,6.0,11.0,94,0.00,,,0.00,Wunderground v.1.15,2013-04-18 11:22:00,
2013-04-18 06:27:00,71.9,70.1,29.88,SE,125,8.0,13.0,94,0.00,,,0.00,Wunderground v.1.15,2013-04-18 11:27:00,
2013-04-18 06:32:00,72.0,70.2,29.89,ESE,108,9.0,10.0,94,0.00,,,0.00,Wunderground v.1.15,2013-04-18 11:32:00,
2013-04-18 06:37:00,72.0,70.2,29.89,SSE,150,8.0,13.0,94,0.00,,,0.00,Wunderground v.1.15,2013-04-18 11:37:00,
2013-04-18 06:42:00,72.0,70.2,29.89,SE,136,8.0,11.0,94,0.00,,,0.00,Wunderground v.1.15,2013-04-18 11:42:00,
2013-04-18 06:47:00,72.0,70.2,29.89,SE,134,6.0,16.0,94,0.00,,,0.00,Wunderground v.1.15,2013-04-18 11:47:00,
2013-04-18 06:52:00,72.0,70.2,29.90,SSE,160,5.0,12.0,94,0.00,,,0.00,Wunderground v.1.15,2013-04-18 11:52:00,
2013-04-18 06:57:00,72.0,70.2,29.90,SE,131,6.0,15.0,94,0.00,,,0.00,Wunderground v.1.15,2013-04-18 11:57:00,
2013-04-18 07:02:00,72.1,70.3,29.90,SE,126,9.0,11.0,94,0.00,,,0.00,Wunderground v.1.15,2013-04-18 12:02:00,
2013-04-18 07:07:00,72.1,70.3,29.90,ESE,107,6.0,15.0,94,0.00,,,0.00,Wunderground v.1.15,2013-04-18 12:07:00,
2013-04-18 07:12:00,72.2,70.4,29.90,SE,129,4.0,11.0,94,0.00,,,0.00,Wunderground v.1.15,2013-04-18 12:12:00,
2013-04-18 07:17:00,72.2,70.4,29.90,ESE,122,5.0,12.0,94,0.00,,,0.00,Wunderground v.1.15,2013-04-18 12:17:00,
2013-04-18 07:23:00,72.3,70.5,29.90,SE,130,7.0,11.0,94,0.00,,,0.00,Wunderground v.1.15,2013-04-18 12:23:00,
2013-04-18 07:28:00,72.5,70.7,29.90,SE,130,4.0,16.0,94,0.00,,,0.00,Wunderground v.1.15,2013-04-18 12:28:00,
2013-04-18 07:32:00,72.9,70.8,29.90,SE,132,5.0,9.0,93,0.00,,,0.00,Wunderground v.1.15,2013-04-18 12:32:00,
2013-04-18 07:38:00,72.9,70.8,29.90,ESE,118,6.0,16.0,93,0.00,,,0.00,Wunderground v.1.15,2013-04-18 12:38:00,
2013-04-18 07:42:00,72.8,70.7,29.90,SE,129,4.0,16.0,93,0.00,,,0.00,Wunderground v.1.15,2013-04-18 12:42:00,
2013-04-18 07:48:00,72.8,70.7,29.90,SSE,148,6.0,16.0,93,0.00,,,0.00,Wunderground v.1.15,2013-04-18 12:48:00,
2013-04-18 07:52:00,72.8,70.7,29.90,ESE,120,5.0,13.0,93,0.00,,,0.00,Wunderground v.1.15,2013-04-18 12:52:00,
2013-04-18 07:58:00,72.8,70.7,29.90,SE,129,8.0,13.0,93,0.00,,,0.00,Wunderground v.1.15,2013-04-18 12:58:00,
2013-04-18 08:02:00,72.9,70.8,29.90,SSE,162,7.0,11.0,93,0.00,,,0.00,Wunderground v.1.15,2013-04-18 13:02:00,
2013-04-18 08:07:00,73.3,71.2,29.90,SE,126,10.0,12.0,93,0.00,,,0.00,Wunderground v.1.15,2013-04-18 13:07:00,
2013-04-18 08:12:00,73.7,71.2,29.90,SSE,155,5.0,11.0,92,0.00,,,0.00,Wunderground v.1.15,2013-04-18 13:12:00,
2013-04-18 08:17:00,73.7,71.2,29.90,SE,139,7.0,14.0,92,0.00,,,0.00,Wunderground v.1.15,2013-04-18 13:17:00,
2013-04-18 08:22:00,73.6,71.1,29.90,SSE,150,8.0,11.0,92,0.00,,,0.00,Wunderground v.1.15,2013-04-18 13:22:00,
2013-04-18 08:27:00,73.4,70.9,29.90,SSE,148,4.0,14.0,92,0.00,,,0.00,Wunderground v.1.15,2013-04-18 13:27:00,
2013-04-18 08:32:00,73.4,70.9,29.90,ESE,110,6.0,12.0,92,0.00,,,0.00,Wunderground v.1.15,2013-04-18 13:32:00,
2013-04-18 08:37:00,73.8,71.3,29.91,East,94,9.0,12.0,92,0.00,,,0.00,Wunderground v.1.15,2013-04-18 13:37:00,
2013-04-18 08:43:00,74.4,71.6,29.90,East,98,7.0,9.0,91,0.00,,,0.00,Wunderground v.1.15,2013-04-18 13:43:00,
2013-04-18 08:48:00,74.8,71.7,29.90,East,93,6.0,11.0,90,0.00,,,0.00,Wunderground v.1.15,2013-04-18 13:48:00,
2013-04-18 08:53:00,74.7,71.2,29.90,SE,134,6.0,14.0,89,0.00,,,0.00,Wunderground v.1.15,2013-04-18 13:53:00,
2013-04-18 08:58:00,74.7,71.6,29.90,ESE,104,8.0,14.0,90,0.00,,,0.00,Wunderground v.1.15,2013-04-18 13:58:00,
2013-04-18 09:03:00,74.6,71.5,29.90,ESE,120,9.0,12.0,90,0.00,,,0.00,Wunderground v.1.15,2013-04-18 14:03:00,
2013-04-18 09:08:00,74.6,71.5,29.90,SE,128,6.0,18.0,90,0.00,,,0.00,Wunderground v.1.15,2013-04-18 14:08:00,
2013-04-18 09:13:00,74.6,71.5,29.91,ESE,115,10.0,12.0,90,0.00,,,0.00,Wunderground v.1.15,2013-04-18 14:13:00,
2013-04-18 09:18:00,74.9,71.4,29.90,SE,132,4.0,12.0,89,0.00,,,0.00,Wunderground v.1.15,2013-04-18 14:18:00,
2013-04-18 09:23:00,75.2,71.7,29.90,ESE,122,5.0,12.0,89,0.00,,,0.00,Wunderground v.1.15,2013-04-18 14:23:00,
2013-04-18 09:28:00,75.0,71.5,29.90,SE,136,5.0,12.0,89,0.00,,,0.00,Wunderground v.1.15,2013-04-18 14:28:00,
2013-04-18 09:33:00,74.7,71.2,29.90,SE,142,9.0,12.0,89,0.00,,,0.00,Wunderground v.1.15,2013-04-18 14:33:00,
2013-04-18 09:38:00,74.6,71.8,29.90,SE,142,10.0,13.0,91,0.00,,,0.00,Wunderground v.1.15,2013-04-18 14:38:00,
2013-04-18 09:43:00,74.5,71.7,29.90,SE,128,5.0,12.0,91,0.00,,,0.00,Wunderground v.1.15,2013-04-18 14:43:00,
2013-04-18 09:48:00,74.8,72.0,29.90,SE,141,6.0,12.0,91,0.00,,,0.00,Wunderground v.1.15,2013-04-18 14:48:00,
2013-04-18 09:53:00,75.0,71.9,29.90,SE,134,7.0,12.0,90,0.00,,,0.00,Wunderground v.1.15,2013-04-18 14:53:00,
2013-04-18 09:58:00,75.2,72.1,29.90,East,99,10.0,12.0,90,0.00,,,0.00,Wunderground v.1.15,2013-04-18 14:58:00,
2013-04-18 10:03:00,75.4,72.3,29.90,SE,142,5.0,11.0,90,0.00,,,0.00,Wunderground v.1.15,2013-04-18 15:03:00,
2013-04-18 10:08:00,75.6,72.1,29.90,South,169,8.0,16.0,89,0.00,,,0.00,Wunderground v.1.15,2013-04-18 15:08:00,
2013-04-18 10:13:00,75.0,71.5,29.90,SE,132,7.0,11.0,89,0.00,,,0.00,Wunderground v.1.15,2013-04-18 15:13:00,
2013-04-18 10:18:00,74.9,71.8,29.90,SSE,152,5.0,14.0,90,0.00,,,0.00,Wunderground v.1.15,2013-04-18 15:18:00,
2013-04-18 10:23:00,75.6,72.1,29.90,SE,138,4.0,12.0,89,0.00,,,0.00,Wunderground v.1.15,2013-04-18 15:23:00,
2013-04-18 10:28:00,75.6,72.1,29.90,SE,141,5.0,12.0,89,0.00,,,0.00,Wunderground v.1.15,2013-04-18 15:28:00,
2013-04-18 10:33:00,75.6,72.1,29.90,SE,130,6.0,12.0,89,0.00,,,0.00,Wunderground v.1.15,2013-04-18 15:33:00,
2013-04-18 10:38:00,76.0,72.2,29.90,ESE,120,5.0,13.0,88,0.00,,,0.00,Wunderground v.1.15,2013-04-18 15:38:00,
2013-04-18 10:43:00,76.3,72.5,29.90,SE,132,6.0,10.0,88,0.00,,,0.00,Wunderground v.1.15,2013-04-18 15:43:00,
2013-04-18 10:48:00,76.7,72.5,29.90,ESE,122,4.0,10.0,87,0.00,,,0.00,Wunderground v.1.15,2013-04-18 15:48:00,
2013-04-18 10:53:00,77.0,72.8,29.91,SE,142,6.0,9.0,87,0.00,,,0.00,Wunderground v.1.15,2013-04-18 15:53:00,
2013-04-18 10:58:00,76.9,72.7,29.91,SSE,148,5.0,11.0,87,0.00,,,0.00,Wunderground v.1.15,2013-04-18 15:58:00,
2013-04-18 11:03:00,76.9,72.7,29.91,ESE,122,5.0,12.0,87,0.00,,,0.00,Wunderground v.1.15,2013-04-18 16:03:00,
2013-04-18 11:08:00,77.2,73.0,29.90,SE,132,5.0,12.0,87,0.00,,,0.00,Wunderground v.1.15,2013-04-18 16:08:00,
2013-04-18 11:13:00,77.5,73.0,29.91,ESE,104,5.0,10.0,86,0.00,,,0.00,Wunderground v.1.15,2013-04-18 16:13:00,
2013-04-18 11:18:00,77.4,72.9,29.91,SE,129,5.0,11.0,86,0.00,,,0.00,Wunderground v.1.15,2013-04-18 16:18:00,
2013-04-18 11:23:00,77.4,72.9,29.91,SE,142,7.0,11.0,86,0.00,,,0.00,Wunderground v.1.15,2013-04-18 16:23:00,
2013-04-18 11:28:00,77.3,72.8,29.91,SE,142,6.0,12.0,86,0.00,,,0.00,Wunderground v.1.15,2013-04-18 16:28:00,
2013-04-18 11:33:00,77.1,72.9,29.91,ESE,116,4.0,8.0,87,0.00,,,0.00,Wunderground v.1.15,2013-04-18 16:33:00,
2013-04-18 11:38:00,76.9,72.7,29.91,SE,136,5.0,9.0,87,0.00,,,0.00,Wunderground v.1.15,2013-04-18 16:38:00,
2013-04-18 11:43:00,76.8,73.0,29.91,SE,129,4.0,10.0,88,0.00,,,0.00,Wunderground v.1.15,2013-04-18 16:43:00,
2013-04-18 11:48:00,76.8,72.6,29.90,SE,136,4.0,11.0,87,0.00,,,0.00,Wunderground v.1.15,2013-04-18 16:48:00,
2013-04-18 11:53:00,76.8,73.0,29.90,SE,142,6.0,8.0,88,0.00,,,0.00,Wunderground v.1.15,2013-04-18 16:53:00,
2013-04-18 11:58:00,77.4,73.2,29.91,SSE,163,5.0,10.0,87,0.00,,,0.00,Wunderground v.1.15,2013-04-18 16:58:00,
2013-04-18 12:03:00,77.9,73.7,29.90,SE,129,5.0,9.0,87,0.00,,,0.00,Wunderground v.1.15,2013-04-18 17:03:00,
2013-04-18 12:08:00,78.2,73.7,29.91,ESE,108,11.0,11.0,86,0.00,,,0.00,Wunderground v.1.15,2013-04-18 17:08:00,
2013-04-18 12:13:00,78.1,73.9,29.90,ESE,122,4.0,9.0,87,0.00,,,0.00,Wunderground v.1.15,2013-04-18 17:13:00,
2013-04-18 12:18:00,78.1,73.6,29.90,ESE,122,6.0,11.0,86,0.00,,,0.00,Wunderground v.1.15,2013-04-18 17:18:00,
2013-04-18 12:23:00,78.3,73.8,29.90,ESE,113,9.0,11.0,86,0.00,,,0.00,Wunderground v.1.15,2013-04-18 17:23:00,
2013-04-18 12:28:00,78.2,73.7,29.90,SE,136,4.0,11.0,86,0.00,,,0.00,Wunderground v.1.15,2013-04-18 17:28:00,
2013-04-18 12:33:00,78.2,74.0,29.90,SSE,148,5.0,11.0,87,0.00,,,0.00,Wunderground v.1.15,2013-04-18 17:33:00,
2013-04-18 12:38:00,78.2,73.7,29.90,SSW,193,7.0,11.0,86,0.00,,,0.00,Wunderground v.1.15,2013-04-18 17:38:00,
2013-04-18 12:43:00,78.0,73.8,29.89,SE,145,5.0,11.0,87,0.00,,,0.00,Wunderground v.1.15,2013-04-18 17:43:00,
2013-04-18 12:48:00,78.0,73.8,29.89,SE,136,5.0,11.0,87,0.00,,,0.00,Wunderground v.1.15,2013-04-18 17:48:00,
2013-04-18 12:53:00,78.1,73.9,29.89,SSE,152,4.0,9.0,87,0.00,,,0.00,Wunderground v.1.15,2013-04-18 17:53:00,
2013-04-18 12:58:00,78.1,73.9,29.89,South,172,5.0,9.0,87,0.00,,,0.00,Wunderground v.1.15,2013-04-18 17:58:00,
2013-04-18 13:03:00,78.2,74.0,29.89,ESE,122,7.0,10.0,87,0.00,,,0.00,Wunderground v.1.15,2013-04-18 18:03:00,
2013-04-18 13:08:00,78.1,73.9,29.89,SE,124,6.0,10.0,87,0.00,,,0.00,Wunderground v.1.15,2013-04-18 18:08:00,
2013-04-18 13:14:00,77.9,74.1,29.89,SE,134,4.0,9.0,88,0.00,,,0.00,Wunderground v.1.15,2013-04-18 18:14:00,
2013-04-18 13:19:00,78.0,73.8,29.89,ESE,118,5.0,9.0,87,0.00,,,0.00,Wunderground v.1.15,2013-04-18 18:19:00,
2013-04-18 13:24:00,78.0,74.2,29.88,SE,146,5.0,10.0,88,0.00,,,0.00,Wunderground v.1.15,2013-04-18 18:24:00,
2013-04-18 13:29:00,78.3,74.5,29.88,East,99,6.0,12.0,88,0.00,,,0.00,Wunderground v.1.15,2013-04-18 18:29:00,
2013-04-18 13:34:00,78.5,74.3,29.88,ESE,120,5.0,10.0,87,0.00,,,0.00,Wunderground v.1.15,2013-04-18 18:34:00,
2013-04-18 13:39:00,78.2,74.0,29.88,ESE,112,4.0,10.0,87,0.00,,,0.00,Wunderground v.1.15,2013-04-18 18:39:00,
2013-04-18 13:44:00,77.9,74.1,29.88,SE,127,4.0,7.0,88,0.00,,,0.00,Wunderground v.1.15,2013-04-18 18:44:00,
2013-04-18 13:49:00,77.7,73.9,29.88,SE,126,5.0,9.0,88,0.00,,,0.00,Wunderground v.1.15,2013-04-18 18:49:00,
2013-04-18 13:54:00,77.5,74.0,29.88,SE,134,8.0,10.0,89,0.00,,,0.00,Wunderground v.1.15,2013-04-18 18:54:00,
2013-04-18 13:59:00,77.2,73.7,29.87,SSE,150,7.0,10.0,89,0.00,,,0.00,Wunderground v.1.15,2013-04-18 18:59:00,
2013-04-18 14:04:00,76.7,73.2,29.87,SE,127,5.0,12.0,89,0.00,,,0.00,Wunderground v.1.15,2013-04-18 19:04:00,
2013-04-18 14:09:00,76.4,73.2,29.87,ESE,122,4.0,12.0,90,0.00,,,0.00,Wunderground v.1.15,2013-04-18 19:09:00,
2013-04-18 14:14:00,76.1,73.3,29.88,SSE,158,5.0,7.0,91,0.00,,,0.00,Wunderground v.1.15,2013-04-18 19:14:00,
2013-04-18 14:19:00,75.9,73.1,29.87,SSE,153,4.0,8.0,91,0.00,,,0.00,Wunderground v.1.15,2013-04-18 19:19:00,
2013-04-18 14:24:00,75.8,73.3,29.87,ESE,114,7.0,8.0,92,0.00,,,0.00,Wunderground v.1.15,2013-04-18 19:24:00,
2013-04-18 14:29:00,75.9,73.4,29.87,ESE,120,5.0,11.0,92,0.00,,,0.00,Wunderground v.1.15,2013-04-18 19:29:00,
2013-04-18 14:34:00,76.1,73.6,29.87,ESE,120,7.0,10.0,92,0.00,,,0.00,Wunderground v.1.15,2013-04-18 19:34:00,
2013-04-18 14:39:00,76.7,73.9,29.86,ESE,115,9.0,12.0,91,0.00,,,0.00,Wunderground v.1.15,2013-04-18 19:39:00,
2013-04-18 14:44:00,77.1,73.9,29.86,SSE,152,7.0,8.0,90,0.00,,,0.00,Wunderground v.1.15,2013-04-18 19:44:00,
2013-04-18 14:49:00,76.8,74.0,29.86,SE,129,5.0,12.0,91,0.00,,,0.00,Wunderground v.1.15,2013-04-18 19:49:00,
2013-04-18 14:54:00,77.1,74.3,29.86,SE,141,5.0,10.0,91,0.00,,,0.00,Wunderground v.1.15,2013-04-18 19:54:00,
2013-04-18 14:59:00,77.3,74.1,29.85,ESE,115,8.0,10.0,90,0.00,,,0.00,Wunderground v.1.15,2013-04-18 19:59:00,
2013-04-18 15:04:00,76.9,73.7,29.85,ESE,108,9.0,12.0,90,0.00,,,0.00,Wunderground v.1.15,2013-04-18 20:04:00,
2013-04-18 15:09:00,76.4,73.6,29.85,SE,146,6.0,12.0,91,0.00,,,0.00,Wunderground v.1.15,2013-04-18 20:09:00,
2013-04-18 15:14:00,76.3,73.8,29.85,ESE,107,6.0,14.0,92,0.00,,,0.00,Wunderground v.1.15,2013-04-18 20:14:00,
2013-04-18 15:19:00,76.5,74.0,29.85,SE,129,6.0,14.0,92,0.00,,,0.00,Wunderground v.1.15,2013-04-18 20:19:00,
2013-04-18 15:24:00,76.3,73.8,29.84,SE,141,4.0,12.0,92,0.00,,,0.00,Wunderground v.1.15,2013-04-18 20:24:00,
2013-04-18 15:29:00,76.3,74.1,29.84,ESE,112,7.0,12.0,93,0.00,,,0.00,Wunderground v.1.15,2013-04-18 20:29:00,
2013-04-18 15:34:00,76.2,73.7,29.84,SE,125,5.0,9.0,92,0.00,,,0.00,Wunderground v.1.15,2013-04-18 20:34:00,
2013-04-18 15:39:00,76.0,73.8,29.84,SSE,149,8.0,11.0,93,0.00,,,0.00,Wunderground v.1.15,2013-04-18 20:39:00,
2013-04-18 15:44:00,76.0,73.8,29.84,SE,126,4.0,9.0,93,0.00,,,0.00,Wunderground v.1.15,2013-04-18 20:44:00,
2013-04-18 15:49:00,75.9,73.7,29.84,ESE,116,6.0,9.0,93,0.00,,,0.00,Wunderground v.1.15,2013-04-18 20:49:00,
2013-04-18 15:54:00,75.8,73.9,29.83,SE,127,5.0,9.0,94,0.00,,,0.00,Wunderground v.1.15,2013-04-18 20:54:00,
2013-04-18 15:59:00,75.8,73.9,29.83,ESE,117,4.0,11.0,94,0.00,,,0.00,Wunderground v.1.15,2013-04-18 20:59:00,
2013-04-18 16:04:00,75.8,73.9,29.83,South,188,6.0,11.0,94,0.00,,,0.00,Wunderground v.1.15,2013-04-18 21:04:00,
2013-04-18 16:09:00,75.7,73.8,29.83,SE,146,9.0,11.0,94,0.00,,,0.00,Wunderground v.1.15,2013-04-18 21:09:00,
2013-04-18 16:14:00,75.7,73.8,29.83,SSE,159,7.0,8.0,94,0.00,,,0.00,Wunderground v.1.15,2013-04-18 21:14:00,
2013-04-18 16:19:00,75.6,73.8,29.83,ESE,122,6.0,11.0,94,0.00,,,0.00,Wunderground v.1.15,2013-04-18 21:19:00,
2013-04-18 16:24:00,75.5,73.7,29.83,SE,139,4.0,11.0,94,0.00,,,0.00,Wunderground v.1.15,2013-04-18 21:24:00,
2013-04-18 16:29:00,75.5,74.0,29.83,SE,131,4.0,11.0,95,0.00,,,0.00,Wunderground v.1.15,2013-04-18 21:29:00,
2013-04-18 16:34:00,75.6,73.8,29.83,SSE,153,5.0,11.0,94,0.00,,,0.00,Wunderground v.1.15,2013-04-18 21:34:00,
2013-04-18 16:39:00,75.6,73.8,29.83,ESE,118,10.0,11.0,94,0.00,,,0.00,Wunderground v.1.15,2013-04-18 21:39:00,
2013-04-18 16:44:00,75.7,74.2,29.83,SSE,150,4.0,11.0,95,0.00,,,0.00,Wunderground v.1.15,2013-04-18 21:44:00,
2013-04-18 16:49:00,75.8,73.9,29.83,SE,126,8.0,11.0,94,0.00,,,0.00,Wunderground v.1.15,2013-04-18 21:49:00,
2013-04-18 16:54:00,75.6,73.8,29.83,SE,142,3.0,9.0,94,0.00,,,0.00,Wunderground v.1.15,2013-04-18 21:54:00,
2013-04-18 16:59:00,75.6,74.1,29.83,ESE,116,3.0,9.0,95,0.00,,,0.00,Wunderground v.1.15,2013-04-18 21:59:00,
2013-04-18 17:04:00,75.5,74.0,29.83,ESE,117,9.0,12.0,95,0.00,,,0.00,Wunderground v.1.15,2013-04-18 22:04:00,
2013-04-18 17:09:00,75.4,73.9,29.84,SE,144,4.0,12.0,95,0.00,,,0.00,Wunderground v.1.15,2013-04-18 22:09:00,
2013-04-18 17:14:00,75.3,73.8,29.84,SE,134,5.0,13.0,95,0.00,,,0.00,Wunderground v.1.15,2013-04-18 22:14:00,
2013-04-18 17:19:00,75.3,73.8,29.84,SE,128,4.0,13.0,95,0.00,,,0.00,Wunderground v.1.15,2013-04-18 22:19:00,
2013-04-18 17:24:00,75.3,73.8,29.84,SE,131,3.0,10.0,95,0.00,,,0.00,Wunderground v.1.15,2013-04-18 22:24:00,
2013-04-18 17:29:00,75.2,73.7,29.84,SE,128,4.0,10.0,95,0.00,,,0.00,Wunderground v.1.15,2013-04-18 22:29:00,
2013-04-18 17:34:00,75.2,73.7,29.84,SE,128,4.0,9.0,95,0.00,,,0.00,Wunderground v.1.15,2013-04-18 22:34:00,
2013-04-18 17:39:00,75.3,74.1,29.84,SE,128,4.0,9.0,96,0.00,,,0.00,Wunderground v.1.15,2013-04-18 22:39:00,
2013-04-18 17:44:00,75.2,73.7,29.84,SSE,163,7.0,9.0,95,0.00,,,0.00,Wunderground v.1.15,2013-04-18 22:44:00,
2013-04-18 17:49:00,75.2,73.7,29.84,SE,145,7.0,12.0,95,0.00,,,0.00,Wunderground v.1.15,2013-04-18 22:49:00,
2013-04-18 17:54:00,75.3,74.1,29.84,ESE,117,6.0,7.0,96,0.00,,,0.00,Wunderground v.1.15,2013-04-18 22:54:00,
2013-04-18 17:59:00,75.2,73.7,29.84,ESE,122,5.0,10.0,95,0.00,,,0.00,Wunderground v.1.15,2013-04-18 22:59:00,
2013-04-18 18:04:00,75.2,74.0,29.84,SSE,150,4.0,11.0,96,0.00,,,0.00,Wunderground v.1.15,2013-04-18 23:04:00,
2013-04-18 18:09:00,75.2,74.0,29.84,SE,138,3.0,12.0,96,0.00,,,0.00,Wunderground v.1.15,2013-04-18 23:09:00,
2013-04-18 18:14:00,75.1,73.9,29.84,SE,143,4.0,10.0,96,0.00,,,0.00,Wunderground v.1.15,2013-04-18 23:14:00,
2013-04-18 18:19:00,75.1,73.9,29.84,SSE,160,8.0,10.0,96,0.00,,,0.00,Wunderground v.1.15,2013-04-18 23:19:00,
2013-04-18 18:24:00,75.0,73.8,29.84,SE,132,3.0,10.0,96,0.00,,,0.00,Wunderground v.1.15,2013-04-18 23:24:00,
2013-04-18 18:29:00,75.0,73.8,29.84,South,173,8.0,10.0,96,0.00,,,0.00,Wunderground v.1.15,2013-04-18 23:29:00,
2013-04-18 18:34:00,75.0,73.8,29.83,SE,145,4.0,9.0,96,0.00,,,0.00,Wunderground v.1.15,2013-04-18 23:34:00,
2013-04-18 18:39:00,75.0,73.8,29.83,SE,132,5.0,9.0,96,0.00,,,0.00,Wunderground v.1.15,2013-04-18 23:39:00,
2013-04-18 18:44:00,75.0,73.8,29.83,SE,128,6.0,11.0,96,0.00,,,0.00,Wunderground v.1.15,2013-04-18 23:44:00,
2013-04-18 18:49:00,75.0,73.8,29.82,ESE,105,6.0,6.0,96,0.00,,,0.00,Wunderground v.1.15,2013-04-18 23:49:00,
2013-04-18 18:54:00,75.0,73.8,29.82,SSE,148,4.0,12.0,96,0.00,,,0.00,Wunderground v.1.15,2013-04-18 23:54:00,
2013-04-18 18:59:00,74.9,73.7,29.83,SE,128,9.0,9.0,96,0.00,,,0.00,Wunderground v.1.15,2013-04-18 23:59:00,
2013-04-18 19:05:00,74.8,73.6,29.82,SE,146,6.0,10.0,96,0.00,,,0.00,Wunderground v.1.15,2013-04-19 00:05:00,
2013-04-18 19:10:00,74.8,73.9,29.82,SE,128,6.0,6.0,97,0.00,,,0.00,Wunderground v.1.15,2013-04-19 00:10:00,
2013-04-18 19:14:00,74.8,73.9,29.83,SE,128,5.0,8.0,97,0.00,,,0.00,Wunderground v.1.15,2013-04-19 00:14:00,
2013-04-18 19:20:00,74.8,73.9,29.83,SSE,155,4.0,5.0,97,0.00,,,0.00,Wunderground v.1.15,2013-04-19 00:20:00,
2013-04-18 19:25:00,74.7,73.8,29.83,South,171,6.0,14.0,97,0.00,,,0.00,Wunderground v.1.15,2013-04-19 00:25:00,
2013-04-18 19:30:00,74.8,73.9,29.83,SSW,193,8.0,8.0,97,0.00,,,0.00,Wunderground v.1.15,2013-04-19 00:30:00,
2013-04-18 19:35:00,74.7,73.8,29.83,SSE,155,8.0,12.0,97,0.00,,,0.00,Wunderground v.1.15,2013-04-19 00:35:00,
2013-04-18 19:40:00,74.7,73.8,29.83,SSE,156,10.0,10.0,97,0.00,,,0.00,Wunderground v.1.15,2013-04-19 00:40:00,
2013-04-18 19:45:00,74.8,73.9,29.83,East,96,5.0,15.0,97,0.00,,,0.00,Wunderground v.1.15,2013-04-19 00:45:00,
2013-04-18 19:50:00,74.9,74.0,29.83,SSW,203,5.0,8.0,97,0.00,,,0.00,Wunderground v.1.15,2013-04-19 00:50:00,
2013-04-18 19:55:00,74.9,74.0,29.83,SSE,156,10.0,14.0,97,0.00,,,0.00,Wunderground v.1.15,2013-04-19 00:55:00,
2013-04-18 20:00:00,74.8,73.9,29.83,ESE,108,11.0,11.0,97,0.00,,,0.00,Wunderground v.1.15,2013-04-19 01:00:00,
2013-04-18 20:05:00,74.9,74.0,29.83,SSE,155,10.0,17.0,97,0.00,,,0.00,Wunderground v.1.15,2013-04-19 01:05:00,
2013-04-18 20:10:00,75.0,74.1,29.83,SSE,160,8.0,13.0,97,0.00,,,0.00,Wunderground v.1.15,2013-04-19 01:10:00,
2013-04-18 20:15:00,75.1,74.2,29.83,SSE,163,9.0,16.0,97,0.00,,,0.00,Wunderground v.1.15,2013-04-19 01:15:00,
2013-04-18 20:20:00,75.0,74.1,29.83,SSE,162,7.0,9.0,97,0.00,,,0.00,Wunderground v.1.15,2013-04-19 01:20:00,
2013-04-18 20:25:00,75.1,74.2,29.83,SSE,166,15.0,18.0,97,0.00,,,0.00,Wunderground v.1.15,2013-04-19 01:25:00,
2013-04-18 20:30:00,75.1,74.2,29.84,South,170,11.0,14.0,97,0.00,,,0.00,Wunderground v.1.15,2013-04-19 01:30:00,
2013-04-18 20:35:00,75.1,74.2,29.84,SSE,160,8.0,18.0,97,0.00,,,0.00,Wunderground v.1.15,2013-04-19 01:35:00,
2013-04-18 20:40:00,75.3,74.4,29.84,SSE,160,11.0,14.0,97,0.00,,,0.00,Wunderground v.1.15,2013-04-19 01:40:00,
2013-04-18 20:45:00,75.3,74.4,29.84,South,174,13.0,16.0,97,0.00,,,0.00,Wunderground v.1.15,2013-04-19 01:45:00,
2013-04-18 20:50:00,75.4,74.5,29.84,SSE,154,10.0,16.0,97,0.00,,,0.00,Wunderground v.1.15,2013-04-19 01:50:00,
2013-04-18 20:55:00,75.4,74.5,29.84,SE,139,18.0,19.0,97,0.00,,,0.00,Wunderground v.1.15,2013-04-19 01:55:00,
2013-04-18 21:00:00,75.5,74.3,29.84,South,169,11.0,14.0,96,0.00,,,0.00,Wunderground v.1.15,2013-04-19 02:00:00,
2013-04-18 21:05:00,75.4,74.2,29.84,SE,136,14.0,18.0,96,0.00,,,0.00,Wunderground v.1.15,2013-04-19 02:05:00,
2013-04-18 21:10:00,75.5,74.3,29.84,South,169,14.0,16.0,96,0.00,,,0.00,Wunderground v.1.15,2013-04-19 02:10:00,
2013-04-18 21:15:00,75.5,74.3,29.84,South,173,15.0,17.0,96,0.00,,,0.00,Wunderground v.1.15,2013-04-19 02:15:00,
2013-04-18 21:20:00,75.5,74.3,29.84,SSE,155,9.0,12.0,96,0.00,,,0.00,Wunderground v.1.15,2013-04-19 02:20:00,
2013-04-18 21:25:00,75.5,74.3,29.84,SSE,160,12.0,17.0,96,0.00,,,0.00,Wunderground v.1.15,2013-04-19 02:25:00,
2013-04-18 21:30:00,75.5,74.3,29.85,South,190,14.0,15.0,96,0.00,,,0.00,Wunderground v.1.15,2013-04-19 02:30:00,
2013-04-18 21:35:00,75.6,74.4,29.85,South,181,7.0,17.0,96,0.00,,,0.00,Wunderground v.1.15,2013-04-19 02:35:00,
2013-04-18 21:40:00,75.6,74.4,29.85,SSW,194,9.0,12.0,96,0.00,,,0.00,Wunderground v.1.15,2013-04-19 02:40:00,
2013-04-18 21:45:00,75.5,74.3,29.85,South,180,13.0,14.0,96,0.00,,,0.00,Wunderground v.1.15,2013-04-19 02:45:00,
2013-04-18 21:50:00,75.5,74.3,29.85,South,188,9.0,11.0,96,0.00,,,0.00,Wunderground v.1.15,2013-04-19 02:50:00,
2013-04-18 21:55:00,75.5,74.6,29.85,SE,145,9.0,17.0,97,0.00,,,0.00,Wunderground v.1.15,2013-04-19 02:55:00,
2013-04-18 22:00:00,75.5,74.3,29.85,SSE,165,17.0,19.0,96,0.00,,,0.00,Wunderground v.1.15,2013-04-19 03:00:00,
2013-04-18 22:05:00,75.5,74.3,29.85,SSE,168,10.0,21.0,96,0.00,,,0.00,Wunderground v.1.15,2013-04-19 03:05:00,
2013-04-18 22:10:00,75.6,74.4,29.85,South,188,8.0,12.0,96,0.00,,,0.00,Wunderground v.1.15,2013-04-19 03:10:00,
2013-04-18 22:15:00,75.5,74.3,29.85,SSW,193,10.0,18.0,96,0.00,,,0.00,Wunderground v.1.15,2013-04-19 03:15:00,
2013-04-18 22:20:00,75.5,74.3,29.86,South,176,12.0,14.0,96,0.00,,,0.00,Wunderground v.1.15,2013-04-19 03:20:00,
2013-04-18 22:25:00,75.5,74.3,29.85,SSE,168,8.0,17.0,96,0.00,,,0.00,Wunderground v.1.15,2013-04-19 03:25:00,
2013-04-18 22:30:00,75.5,74.3,29.85,SSE,150,12.0,14.0,96,0.00,,,0.00,Wunderground v.1.15,2013-04-19 03:30:00,
2013-04-18 22:35:00,75.5,74.3,29.86,SSE,156,11.0,15.0,96,0.00,,,0.00,Wunderground v.1.15,2013-04-19 03:35:00,
2013-04-18 22:40:00,75.5,74.3,29.86,South,186,13.0,13.0,96,0.00,,,0.00,Wunderground v.1.15,2013-04-19 03:40:00,
2013-04-18 22:45:00,75.5,74.3,29.86,SSE,148,13.0,15.0,96,0.00,,,0.00,Wunderground v.1.15,2013-04-19 03:45:00,
2013-04-18 22:50:00,75.5,74.3,29.86,SSE,153,11.0,12.0,96,0.00,,,0.00,Wunderground v.1.15,2013-04-19 03:50:00,
2013-04-18 22:55:00,75.5,74.3,29.86,South,176,8.0,15.0,96,0.00,,,0.00,Wunderground v.1.15,2013-04-19 03:55:00,
2013-04-18 23:00:00,75.4,74.2,29.85,South,179,11.0,17.0,96,0.00,,,0.00,Wunderground v.1.15,2013-04-19 04:00:00,
2013-04-18 23:01:00,75.4,74.5,29.85,South,176,11.0,17.0,97,0.00,,,0.00,Wunderground v.1.15,2013-04-19 04:01:00,
2013-04-18 23:06:00,75.3,74.4,29.85,South,169,12.0,19.0,97,0.00,,,0.00,Wunderground v.1.15,2013-04-19 04:06:00,
2013-04-18 23:11:00,75.3,74.4,29.85,SE,142,14.0,15.0,97,0.00,,,0.00,Wunderground v.1.15,2013-04-19 04:11:00,
2013-04-18 23:16:00,75.3,74.4,29.85,SSE,163,14.0,20.0,97,0.00,,,0.00,Wunderground v.1.15,2013-04-19 04:16:00,
2013-04-18 23:21:00,75.3,74.4,29.85,South,177,15.0,16.0,97,0.00,,,0.00,Wunderground v.1.15,2013-04-19 04:21:00,
2013-04-18 23:26:00,75.2,74.3,29.85,SSW,205,12.0,18.0,97,0.00,,,0.00,Wunderground v.1.15,2013-04-19 04:26:00,
2013-04-18 23:31:00,75.3,74.4,29.85,SSW,198,7.0,14.0,97,0.00,,,0.00,Wunderground v.1.15,2013-04-19 04:31:00,
2013-04-18 23:36:00,75.3,74.4,29.84,SSE,160,10.0,16.0,97,0.00,,,0.00,Wunderground v.1.15,2013-04-19 04:36:00,
2013-04-18 23:41:00,75.2,74.3,29.84,South,174,12.0,18.0,97,0.00,,,0.00,Wunderground v.1.15,2013-04-19 04:41:00,
2013-04-18 23:46:00,75.2,74.3,29.84,SE,129,8.0,18.0,97,0.00,,,0.00,Wunderground v.1.15,2013-04-19 04:46:00,
2013-04-18 23:51:00,75.2,74.3,29.84,SSE,154,7.0,17.0,97,0.00,,,0.00,Wunderground v.1.15,2013-04-19 04:51:00,
2013-04-18 23:56:00,75.2,74.3,29.83,SSE,167,14.0,17.0,97,0.00,,,0.00,Wunderground v.1.15,2013-04-19 04:56:00,